sensor_id;sensor_type;location;lat;lon;timestamp;pressure;altitude;pressure_sealevel;temperature;humidity
50430;BME280;36359;41.556;-8.418;2023-06-14T00:00:52;100205.13;;;20.71;91.27
50430;BME280;36359;41.556;-8.418;2023-06-14T00:03:18;100204.09;;;20.58;90.51
50430;BME280;36359;41.556;-8.418;2023-06-14T00:05:47;100207.50;;;20.54;92.75
50430;BME280;36359;41.556;-8.418;2023-06-14T00:08:14;100206.91;;;20.38;92.73
50430;BME280;36359;41.556;-8.418;2023-06-14T00:10:40;100197.16;;;20.36;92.56
50430;BME280;36359;41.556;-8.418;2023-06-14T00:13:10;100201.78;;;20.42;92.91
50430;BME280;36359;41.556;-8.418;2023-06-14T00:15:37;100203.91;;;20.40;92.55
50430;BME280;36359;41.556;-8.418;2023-06-14T00:18:03;100199.75;;;20.24;93.77
50430;BME280;36359;41.556;-8.418;2023-06-14T00:20:31;100201.66;;;20.10;95.77
50430;BME280;36359;41.556;-8.418;2023-06-14T00:22:59;100202.03;;;20.34;93.83
50430;BME280;36359;41.556;-8.418;2023-06-14T00:25:25;100206.22;;;20.43;93.36
50430;BME280;36359;41.556;-8.418;2023-06-14T00:27:52;100200.94;;;20.48;94.00
50430;BME280;36359;41.556;-8.418;2023-06-14T00:30:18;100202.41;;;20.44;93.70
50430;BME280;36359;41.556;-8.418;2023-06-14T00:32:45;100204.56;;;20.42;93.95
50430;BME280;36359;41.556;-8.418;2023-06-14T00:35:11;100205.78;;;20.53;93.43
50430;BME280;36359;41.556;-8.418;2023-06-14T00:37:44;100200.94;;;20.48;93.22
50430;BME280;36359;41.556;-8.418;2023-06-14T00:40:10;100206.00;;;20.51;92.53
50430;BME280;36359;41.556;-8.418;2023-06-14T00:42:36;100207.06;;;20.50;92.54
50430;BME280;36359;41.556;-8.418;2023-06-14T00:45:02;100200.53;;;20.45;92.99
50430;BME280;36359;41.556;-8.418;2023-06-14T00:47:28;100193.34;;;20.30;94.16
50430;BME280;36359;41.556;-8.418;2023-06-14T00:49:54;100188.22;;;20.40;93.66
50430;BME280;36359;41.556;-8.418;2023-06-14T00:52:23;100195.66;;;20.40;93.76
50430;BME280;36359;41.556;-8.418;2023-06-14T00:54:50;100195.97;;;20.12;95.44
50430;BME280;36359;41.556;-8.418;2023-06-14T00:57:16;100198.09;;;19.90;97.01
50430;BME280;36359;41.556;-8.418;2023-06-14T00:59:47;100193.34;;;20.30;96.08
50430;BME280;36359;41.556;-8.418;2023-06-14T01:02:13;100199.50;;;20.26;95.01
50430;BME280;36359;41.556;-8.418;2023-06-14T01:04:40;100208.66;;;20.00;96.51
50430;BME280;36359;41.556;-8.418;2023-06-14T01:10:26;100203.59;;;19.37;100.00
50430;BME280;36359;41.556;-8.418;2023-06-14T01:15:32;100201.03;;;19.28;100.00
50430;BME280;36359;41.556;-8.418;2023-06-14T01:17:58;100204.22;;;19.19;100.00
50430;BME280;36359;41.556;-8.418;2023-06-14T01:20:33;100211.63;;;19.18;100.00
50430;BME280;36359;41.556;-8.418;2023-06-14T01:23:03;100200.63;;;19.18;100.00
50430;BME280;36359;41.556;-8.418;2023-06-14T01:25:29;100211.22;;;19.48;100.00
50430;BME280;36359;41.556;-8.418;2023-06-14T01:27:59;100211.22;;;19.61;100.00
50430;BME280;36359;41.556;-8.418;2023-06-14T01:30:26;100205.94;;;19.60;100.00
50430;BME280;36359;41.556;-8.418;2023-06-14T01:32:54;100215.88;;;19.54;100.00
50430;BME280;36359;41.556;-8.418;2023-06-14T01:35:21;100218.22;;;19.57;100.00
50430;BME280;36359;41.556;-8.418;2023-06-14T01:37:48;100214.59;;;19.50;100.00
50430;BME280;36359;41.556;-8.418;2023-06-14T01:40:15;100216.72;;;19.55;100.00
50430;BME280;36359;41.556;-8.418;2023-06-14T01:42:42;100223.50;;;19.45;100.00
50430;BME280;36359;41.556;-8.418;2023-06-14T01:45:10;100231.13;;;19.63;100.00
50430;BME280;36359;41.556;-8.418;2023-06-14T01:47:36;100223.13;;;19.68;100.00
50430;BME280;36359;41.556;-8.418;2023-06-14T01:50:03;100227.97;;;19.93;99.99
50430;BME280;36359;41.556;-8.418;2023-06-14T01:52:30;100230.50;;;19.88;99.49
50430;BME280;36359;41.556;-8.418;2023-06-14T01:54:55;100224.38;;;19.86;100.00
50430;BME280;36359;41.556;-8.418;2023-06-14T01:57:22;100221.00;;;19.84;100.00
50430;BME280;36359;41.556;-8.418;2023-06-14T01:59:48;100226.50;;;19.70;100.00
50430;BME280;36359;41.556;-8.418;2023-06-14T02:02:15;100225.22;;;19.60;100.00
50430;BME280;36359;41.556;-8.418;2023-06-14T02:04:41;100216.97;;;19.66;100.00
50430;BME280;36359;41.556;-8.418;2023-06-14T02:07:07;100224.38;;;19.86;100.00
50430;BME280;36359;41.556;-8.418;2023-06-14T02:09:34;100227.97;;;19.93;99.87
50430;BME280;36359;41.556;-8.418;2023-06-14T02:12:00;100230.28;;;19.96;99.66
50430;BME280;36359;41.556;-8.418;2023-06-14T02:14:26;100219.31;;;19.83;100.00
50430;BME280;36359;41.556;-8.418;2023-06-14T02:16:52;100224.78;;;19.96;99.35
50430;BME280;36359;41.556;-8.418;2023-06-14T02:19:20;100221.81;;;19.91;99.71
50430;BME280;36359;41.556;-8.418;2023-06-14T02:21:46;100219.28;;;19.76;100.00
50430;BME280;36359;41.556;-8.418;2023-06-14T02:24:13;100231.56;;;19.87;99.98
50430;BME280;36359;41.556;-8.418;2023-06-14T02:26:39;100228.59;;;19.42;100.00
50430;BME280;36359;41.556;-8.418;2023-06-14T02:29:05;100237.47;;;19.50;100.00
50430;BME280;36359;41.556;-8.418;2023-06-14T02:31:32;100228.81;;;19.67;100.00
50430;BME280;36359;41.556;-8.418;2023-06-14T02:33:58;100223.72;;;19.90;99.73
50430;BME280;36359;41.556;-8.418;2023-06-14T02:36:24;100222.47;;;19.86;99.04
50430;BME280;36359;41.556;-8.418;2023-06-14T02:38:50;100227.72;;;19.61;100.00
50430;BME280;36359;41.556;-8.418;2023-06-14T02:41:16;100220.94;;;19.24;100.00
50430;BME280;36359;41.556;-8.418;2023-06-14T02:43:41;100230.25;;;19.49;100.00
50430;BME280;36359;41.556;-8.418;2023-06-14T02:46:07;100233.28;;;19.68;100.00
50430;BME280;36359;41.556;-8.418;2023-06-14T02:48:33;100228.38;;;19.90;99.70
50430;BME280;36359;41.556;-8.418;2023-06-14T02:50:58;100228.81;;;19.87;99.67
50430;BME280;36359;41.556;-8.418;2023-06-14T02:53:24;100234.53;;;19.79;99.98
50430;BME280;36359;41.556;-8.418;2023-06-14T02:55:50;100238.38;;;19.71;100.00
50430;BME280;36359;41.556;-8.418;2023-06-14T02:58:16;100231.13;;;19.63;100.00
50430;BME280;36359;41.556;-8.418;2023-06-14T03:00:43;100229.66;;;19.67;100.00
50430;BME280;36359;41.556;-8.418;2023-06-14T03:03:09;100219.94;;;19.65;100.00
50430;BME280;36359;41.556;-8.418;2023-06-14T03:05:47;100226.94;;;19.74;100.00
50430;BME280;36359;41.556;-8.418;2023-06-14T03:08:18;100215.91;;;19.81;100.00
50430;BME280;36359;41.556;-8.418;2023-06-14T03:10:47;100221.38;;;19.94;99.64
50430;BME280;36359;41.556;-8.418;2023-06-14T03:13:13;100214.63;;;19.90;99.72
50430;BME280;36359;41.556;-8.418;2023-06-14T03:15:39;100221.81;;;20.04;98.40
50430;BME280;36359;41.556;-8.418;2023-06-14T03:18:10;100220.97;;;19.90;99.27
50430;BME280;36359;41.556;-8.418;2023-06-14T03:20:37;100218.22;;;19.84;99.74
50430;BME280;36359;41.556;-8.418;2023-06-14T03:23:06;100227.13;;;19.79;100.00
50430;BME280;36359;41.556;-8.418;2023-06-14T03:25:32;100222.47;;;19.86;100.00
50430;BME280;36359;41.556;-8.418;2023-06-14T03:28:02;100220.13;;;19.90;99.70
50430;BME280;36359;41.556;-8.418;2023-06-14T03:30:30;100218.47;;;19.69;100.00
50430;BME280;36359;41.556;-8.418;2023-06-14T03:32:56;100219.66;;;19.26;100.00
50430;BME280;36359;41.556;-8.418;2023-06-14T03:35:23;100217.56;;;19.62;100.00
50430;BME280;36359;41.556;-8.418;2023-06-14T03:37:49;100215.44;;;19.31;100.00
50430;BME280;36359;41.556;-8.418;2023-06-14T03:40:17;100211.66;;;19.45;100.00
50430;BME280;36359;41.556;-8.418;2023-06-14T03:42:46;100210.38;;;19.54;100.00
50430;BME280;36359;41.556;-8.418;2023-06-14T03:45:12;100207.41;;;19.42;100.00
50430;BME280;36359;41.556;-8.418;2023-06-14T03:47:38;100204.00;;;19.47;100.00
50430;BME280;36359;41.556;-8.418;2023-06-14T03:50:04;100201.91;;;19.56;100.00
50430;BME280;36359;41.556;-8.418;2023-06-14T03:52:31;100213.78;;;19.56;100.00
50430;BME280;36359;41.556;-8.418;2023-06-14T03:54:58;100213.78;;;19.56;100.00
50430;BME280;36359;41.556;-8.418;2023-06-14T03:57:27;100203.38;;;19.58;100.00
50430;BME280;36359;41.556;-8.418;2023-06-14T03:59:54;100209.31;;;19.62;100.00
50430;BME280;36359;41.556;-8.418;2023-06-14T04:02:21;100209.94;;;19.44;100.00
50430;BME280;36359;41.556;-8.418;2023-06-14T04:04:50;100206.34;;;19.37;100.00
50430;BME280;36359;41.556;-8.418;2023-06-14T04:07:17;100202.75;;;19.43;100.00
50430;BME280;36359;41.556;-8.418;2023-06-14T04:09:46;100198.94;;;19.44;100.00
50430;BME280;36359;41.556;-8.418;2023-06-14T04:12:12;100209.72;;;19.32;100.00
50430;BME280;36359;41.556;-8.418;2023-06-14T04:14:39;100202.75;;;19.29;100.00
50430;BME280;36359;41.556;-8.418;2023-06-14T04:17:07;100205.28;;;19.38;100.00
50430;BME280;36359;41.556;-8.418;2023-06-14T04:19:33;100207.81;;;19.26;100.00
50430;BME280;36359;41.556;-8.418;2023-06-14T04:21:59;100211.41;;;19.20;100.00
50430;BME280;36359;41.556;-8.418;2023-06-14T04:24:28;100207.63;;;19.34;100.00
50430;BME280;36359;41.556;-8.418;2023-06-14T04:26:58;100215.66;;;19.49;100.00
50430;BME280;36359;41.556;-8.418;2023-06-14T04:29:25;100219.94;;;19.65;100.00
50430;BME280;36359;41.556;-8.418;2023-06-14T04:31:58;100223.50;;;19.52;100.00
50430;BME280;36359;41.556;-8.418;2023-06-14T04:34:26;100222.84;;;19.50;100.00
50430;BME280;36359;41.556;-8.418;2023-06-14T04:36:56;100223.50;;;19.45;100.00
50430;BME280;36359;41.556;-8.418;2023-06-14T04:39:31;100222.00;;;19.49;100.00
50430;BME280;36359;41.556;-8.418;2023-06-14T04:41:59;100221.81;;;19.58;100.00
50430;BME280;36359;41.556;-8.418;2023-06-14T04:44:26;100221.81;;;19.58;100.00
50430;BME280;36359;41.556;-8.418;2023-06-14T04:46:57;100225.00;;;19.48;100.00
50430;BME280;36359;41.556;-8.418;2023-06-14T04:49:25;100220.53;;;19.47;100.00
50430;BME280;36359;41.556;-8.418;2023-06-14T04:51:52;100220.94;;;19.44;100.00
50430;BME280;36359;41.556;-8.418;2023-06-14T04:54:25;100225.59;;;19.50;100.00
50430;BME280;36359;41.556;-8.418;2023-06-14T04:56:52;100226.88;;;19.41;100.00
50430;BME280;36359;41.556;-8.418;2023-06-14T04:59:23;100226.63;;;19.22;100.00
50430;BME280;36359;41.556;-8.418;2023-06-14T05:01:50;100234.09;;;19.42;100.00
50430;BME280;36359;41.556;-8.418;2023-06-14T05:04:18;100230.31;;;19.69;100.00
50430;BME280;36359;41.556;-8.418;2023-06-14T05:06:44;100224.59;;;19.78;100.00
50430;BME280;36359;41.556;-8.418;2023-06-14T05:09:12;100224.81;;;19.69;100.00
50430;BME280;36359;41.556;-8.418;2023-06-14T05:11:37;100229.44;;;19.82;100.00
50430;BME280;36359;41.556;-8.418;2023-06-14T05:14:03;100229.47;;;19.76;100.00
50430;BME280;36359;41.556;-8.418;2023-06-14T05:16:29;100230.94;;;19.71;100.00
50430;BME280;36359;41.556;-8.418;2023-06-14T05:18:55;100232.84;;;19.84;100.00
50430;BME280;36359;41.556;-8.418;2023-06-14T05:21:21;100230.72;;;19.93;100.00
50430;BME280;36359;41.556;-8.418;2023-06-14T05:23:47;100229.88;;;19.92;100.00
50430;BME280;36359;41.556;-8.418;2023-06-14T05:26:13;100239.19;;;19.85;100.00
50430;BME280;36359;41.556;-8.418;2023-06-14T05:28:38;100237.91;;;19.67;100.00
50430;BME280;36359;41.556;-8.418;2023-06-14T05:31:04;100233.84;;;19.50;100.00
50430;BME280;36359;41.556;-8.418;2023-06-14T05:33:30;100240.00;;;19.59;100.00
50430;BME280;36359;41.556;-8.418;2023-06-14T05:35:55;100248.72;;;19.62;100.00
50430;BME280;36359;41.556;-8.418;2023-06-14T05:38:21;100250.41;;;19.57;100.00
50430;BME280;36359;41.556;-8.418;2023-06-14T05:40:47;100259.06;;;19.60;100.00
50430;BME280;36359;41.556;-8.418;2023-06-14T05:43:13;100256.56;;;19.65;100.00
50430;BME280;36359;41.556;-8.418;2023-06-14T05:45:38;100263.34;;;19.69;100.00
50430;BME280;36359;41.556;-8.418;2023-06-14T05:48:04;100265.84;;;19.58;100.00
50430;BME280;36359;41.556;-8.418;2023-06-14T05:50:30;100268.78;;;19.49;100.00
50430;BME280;36359;41.556;-8.418;2023-06-14T05:52:56;100266.03;;;19.49;100.00
50430;BME280;36359;41.556;-8.418;2023-06-14T05:55:21;100259.28;;;19.39;100.00
50430;BME280;36359;41.556;-8.418;2023-06-14T05:57:47;100263.69;;;19.40;100.00
50430;BME280;36359;41.556;-8.418;2023-06-14T06:00:14;100264.13;;;19.50;100.00
50430;BME280;36359;41.556;-8.418;2023-06-14T06:02:45;100267.09;;;19.55;100.00
50430;BME280;36359;41.556;-8.418;2023-06-14T06:05:13;100266.06;;;19.56;100.00
50430;BME280;36359;41.556;-8.418;2023-06-14T06:07:39;100269.47;;;19.85;100.00
50430;BME280;36359;41.556;-8.418;2023-06-14T06:10:07;100266.28;;;19.88;100.00
50430;BME280;36359;41.556;-8.418;2023-06-14T06:12:33;100275.63;;;20.00;100.00
50430;BME280;36359;41.556;-8.418;2023-06-14T06:14:59;100279.00;;;20.02;100.00
50430;BME280;36359;41.556;-8.418;2023-06-14T06:17:26;100274.34;;;20.09;100.00
50430;BME280;36359;41.556;-8.418;2023-06-14T06:19:51;100277.94;;;19.90;100.00
50430;BME280;36359;41.556;-8.418;2023-06-14T06:22:17;100270.34;;;19.65;100.00
50430;BME280;36359;41.556;-8.418;2023-06-14T06:24:43;100277.75;;;19.98;100.00
50430;BME280;36359;41.556;-8.418;2023-06-14T06:27:09;100271.81;;;19.94;100.00
50430;BME280;36359;41.556;-8.418;2023-06-14T06:29:35;100272.22;;;20.11;100.00
50430;BME280;36359;41.556;-8.418;2023-06-14T06:32:01;100278.97;;;20.35;98.66
50430;BME280;36359;41.556;-8.418;2023-06-14T06:34:27;100285.94;;;20.38;97.99
50430;BME280;36359;41.556;-8.418;2023-06-14T06:36:53;100275.53;;;20.60;96.54
50430;BME280;36359;41.556;-8.418;2023-06-14T06:39:19;100281.94;;;20.20;99.32
50430;BME280;36359;41.556;-8.418;2023-06-14T06:41:45;100277.25;;;20.41;98.56
50430;BME280;36359;41.556;-8.418;2023-06-14T06:44:10;100272.63;;;20.28;98.37
50430;BME280;36359;41.556;-8.418;2023-06-14T06:46:38;100264.53;;;20.53;97.23
50430;BME280;36359;41.556;-8.418;2023-06-14T06:49:08;100278.34;;;20.27;99.45
50430;BME280;36359;41.556;-8.418;2023-06-14T06:51:37;100275.34;;;20.41;98.64
50430;BME280;36359;41.556;-8.418;2023-06-14T06:54:03;100275.56;;;20.40;98.85
50430;BME280;36359;41.556;-8.418;2023-06-14T06:56:29;100283.38;;;20.50;97.28
50430;BME280;36359;41.556;-8.418;2023-06-14T06:58:54;100290.78;;;20.49;94.65
50430;BME280;36359;41.556;-8.418;2023-06-14T07:01:20;100288.53;;;20.19;97.32
50430;BME280;36359;41.556;-8.418;2023-06-14T07:03:46;100300.81;;;19.97;97.95
50430;BME280;36359;41.556;-8.418;2023-06-14T07:06:12;100303.97;;;19.67;98.83
50430;BME280;36359;41.556;-8.418;2023-06-14T07:08:38;100307.81;;;19.73;100.00
50430;BME280;36359;41.556;-8.418;2023-06-14T07:11:05;100305.91;;;19.93;99.03
50430;BME280;36359;41.556;-8.418;2023-06-14T07:13:31;100319.66;;;20.40;97.47
50430;BME280;36359;41.556;-8.418;2023-06-14T07:16:00;100316.22;;;20.64;95.14
50430;BME280;36359;41.556;-8.418;2023-06-14T07:18:27;100323.88;;;20.62;94.30
50430;BME280;36359;41.556;-8.418;2023-06-14T07:20:53;100328.16;;;20.25;94.83
50430;BME280;36359;41.556;-8.418;2023-06-14T07:23:20;100334.91;;;20.56;94.76
50430;BME280;36359;41.556;-8.418;2023-06-14T07:25:46;100328.53;;;20.49;93.39
50430;BME280;36359;41.556;-8.418;2023-06-14T07:28:12;100329.63;;;20.28;93.46
50430;BME280;36359;41.556;-8.418;2023-06-14T07:30:38;100335.97;;;20.35;94.10
50430;BME280;36359;41.556;-8.418;2023-06-14T07:33:04;100335.34;;;20.39;93.55
50430;BME280;36359;41.556;-8.418;2023-06-14T07:35:30;100340.84;;;20.59;93.34
50430;BME280;36359;41.556;-8.418;2023-06-14T07:37:56;100328.69;;;20.87;93.46
50430;BME280;36359;41.556;-8.418;2023-06-14T07:40:22;100333.66;;;21.17;92.70
50430;BME280;36359;41.556;-8.418;2023-06-14T07:42:47;100338.91;;;20.80;94.15
50430;BME280;36359;41.556;-8.418;2023-06-14T07:45:16;100331.88;;;20.84;92.66
50430;BME280;36359;41.556;-8.418;2023-06-14T07:47:42;100335.97;;;20.48;94.25
50430;BME280;36359;41.556;-8.418;2023-06-14T07:50:08;100334.09;;;20.15;96.42
50430;BME280;36359;41.556;-8.418;2023-06-14T07:52:39;100328.59;;;20.15;96.59
50430;BME280;36359;41.556;-8.418;2023-06-14T07:55:05;100326.00;;;20.20;95.55
50430;BME280;36359;41.556;-8.418;2023-06-14T07:57:31;100338.56;;;20.03;97.13
50430;BME280;36359;41.556;-8.418;2023-06-14T07:59:57;100333.47;;;20.27;98.68
50430;BME280;36359;41.556;-8.418;2023-06-14T08:02:23;100330.16;;;20.90;95.96
50430;BME280;36359;41.556;-8.418;2023-06-14T08:04:49;100333.88;;;21.08;92.51
50430;BME280;36359;41.556;-8.418;2023-06-14T08:07:15;100341.91;;;20.65;92.58
50430;BME280;36359;41.556;-8.418;2023-06-14T08:09:41;100342.88;;;20.97;93.12
50430;BME280;36359;41.556;-8.418;2023-06-14T08:12:07;100347.78;;;21.40;90.08
50430;BME280;36359;41.556;-8.418;2023-06-14T08:14:39;100335.28;;;21.38;91.00
50430;BME280;36359;41.556;-8.418;2023-06-14T08:17:05;100322.38;;;20.67;90.71
50430;BME280;36359;41.556;-8.418;2023-06-14T08:19:32;100338.56;;;21.53;90.98
50430;BME280;36359;41.556;-8.418;2023-06-14T08:21:58;100322.91;;;21.47;87.18
50430;BME280;36359;41.556;-8.418;2023-06-14T08:24:25;100337.47;;;21.61;86.01
50430;BME280;36359;41.556;-8.418;2023-06-14T08:26:53;100345.28;;;21.25;88.39
50430;BME280;36359;41.556;-8.418;2023-06-14T08:29:19;100349.13;;;21.24;91.52
50430;BME280;36359;41.556;-8.418;2023-06-14T08:31:45;100347.63;;;21.67;86.10
50430;BME280;36359;41.556;-8.418;2023-06-14T08:34:11;100345.25;;;21.32;87.40
50430;BME280;36359;41.556;-8.418;2023-06-14T08:36:36;100347.00;;;21.20;86.10
50430;BME280;36359;41.556;-8.418;2023-06-14T08:39:06;100342.31;;;21.27;89.04
50430;BME280;36359;41.556;-8.418;2023-06-14T08:41:37;100347.69;;;21.15;86.28
50430;BME280;36359;41.556;-8.418;2023-06-14T08:44:03;100343.44;;;21.58;84.06
50430;BME280;36359;41.556;-8.418;2023-06-14T08:46:32;100349.00;;;21.51;85.08
50430;BME280;36359;41.556;-8.418;2023-06-14T08:49:01;100353.34;;;21.97;84.50
50430;BME280;36359;41.556;-8.418;2023-06-14T08:51:31;100353.94;;;22.06;81.12
50430;BME280;36359;41.556;-8.418;2023-06-14T08:54:02;100343.69;;;22.38;82.22
50430;BME280;36359;41.556;-8.418;2023-06-14T08:56:30;100353.69;;;22.39;81.25
50430;BME280;36359;41.556;-8.418;2023-06-14T08:58:58;100348.16;;;22.39;79.72
50430;BME280;36359;41.556;-8.418;2023-06-14T09:01:28;100362.22;;;22.56;79.04
50430;BME280;36359;41.556;-8.418;2023-06-14T09:03:54;100359.91;;;22.34;79.38
50430;BME280;36359;41.556;-8.418;2023-06-14T09:06:23;100349.03;;;22.76;77.89
50430;BME280;36359;41.556;-8.418;2023-06-14T09:08:56;100343.13;;;22.29;78.96
50430;BME280;36359;41.556;-8.418;2023-06-14T09:11:22;100356.00;;;21.85;82.84
50430;BME280;36359;41.556;-8.418;2023-06-14T09:13:49;100353.69;;;21.82;80.50
50430;BME280;36359;41.556;-8.418;2023-06-14T09:16:17;100354.50;;;22.21;80.77
50430;BME280;36359;41.556;-8.418;2023-06-14T09:18:49;100333.63;;;22.25;80.13
50430;BME280;36359;41.556;-8.418;2023-06-14T09:21:16;100358.81;;;22.60;78.57
50430;BME280;36359;41.556;-8.418;2023-06-14T09:23:50;100346.44;;;22.63;77.10
50430;BME280;36359;41.556;-8.418;2023-06-14T09:26:18;100358.00;;;22.97;78.78
50430;BME280;36359;41.556;-8.418;2023-06-14T09:28:50;100365.19;;;23.34;76.68
50430;BME280;36359;41.556;-8.418;2023-06-14T09:31:17;100348.63;;;23.16;75.06
50430;BME280;36359;41.556;-8.418;2023-06-14T09:33:48;100345.91;;;22.73;75.83
50430;BME280;36359;41.556;-8.418;2023-06-14T09:36:26;100364.16;;;22.99;78.65
50430;BME280;36359;41.556;-8.418;2023-06-14T09:39:02;100366.66;;;23.37;78.21
50430;BME280;36359;41.556;-8.418;2023-06-14T09:44:03;100357.38;;;23.62;74.18
50430;BME280;36359;41.556;-8.418;2023-06-14T09:46:30;100370.16;;;23.32;76.59
50430;BME280;36359;41.556;-8.418;2023-06-14T09:48:57;100376.81;;;23.43;74.11
50430;BME280;36359;41.556;-8.418;2023-06-14T09:51:23;100373.81;;;23.45;74.81
50430;BME280;36359;41.556;-8.418;2023-06-14T09:53:50;100365.75;;;23.73;72.71
50430;BME280;36359;41.556;-8.418;2023-06-14T09:56:29;100361.31;;;23.72;72.02
50430;BME280;36359;41.556;-8.418;2023-06-14T09:58:59;100361.13;;;23.37;72.74
50430;BME280;36359;41.556;-8.418;2023-06-14T10:01:28;100360.78;;;23.15;75.78
50430;BME280;36359;41.556;-8.418;2023-06-14T10:04:00;100361.72;;;23.09;79.25
50430;BME280;36359;41.556;-8.418;2023-06-14T10:06:31;100357.81;;;23.28;73.50
50430;BME280;36359;41.556;-8.418;2023-06-14T10:08:59;100348.97;;;23.68;75.30
50430;BME280;36359;41.556;-8.418;2023-06-14T10:11:26;100340.97;;;23.78;73.42
50430;BME280;36359;41.556;-8.418;2023-06-14T10:13:57;100358.25;;;24.04;71.76
50430;BME280;36359;41.556;-8.418;2023-06-14T10:16:52;100362.72;;;24.05;74.32
50430;BME280;36359;41.556;-8.418;2023-06-14T10:19:28;100361.28;;;24.26;71.73
50430;BME280;36359;41.556;-8.418;2023-06-14T10:22:08;100351.22;;;24.43;68.44
50430;BME280;36359;41.556;-8.418;2023-06-14T10:24:43;100355.44;;;24.69;68.26
50430;BME280;36359;41.556;-8.418;2023-06-14T10:27:13;100355.31;;;24.53;67.77
50430;BME280;36359;41.556;-8.418;2023-06-14T10:30:07;100346.47;;;24.20;70.24
50430;BME280;36359;41.556;-8.418;2023-06-14T10:32:33;100348.81;;;23.93;69.36
50430;BME280;36359;41.556;-8.418;2023-06-14T10:35:08;100342.56;;;23.68;69.99
50430;BME280;36359;41.556;-8.418;2023-06-14T10:37:41;100350.16;;;23.30;71.78
50430;BME280;36359;41.556;-8.418;2023-06-14T10:40:07;100346.25;;;23.50;73.34
50430;BME280;36359;41.556;-8.418;2023-06-14T10:42:34;100355.53;;;24.28;69.39
50430;BME280;36359;41.556;-8.418;2023-06-14T10:45:00;100347.50;;;23.96;67.78
50430;BME280;36359;41.556;-8.418;2023-06-14T10:47:33;100355.38;;;24.22;69.08
50430;BME280;36359;41.556;-8.418;2023-06-14T10:50:08;100350.81;;;24.16;72.00
50430;BME280;36359;41.556;-8.418;2023-06-14T10:52:38;100341.72;;;23.86;70.98
50430;BME280;36359;41.556;-8.418;2023-06-14T10:55:10;100350.69;;;24.23;71.52
50430;BME280;36359;41.556;-8.418;2023-06-14T10:57:43;100341.41;;;24.41;72.40
50430;BME280;36359;41.556;-8.418;2023-06-14T11:00:28;100344.34;;;24.69;70.16
50430;BME280;36359;41.556;-8.418;2023-06-14T11:05:51;100342.13;;;24.95;67.06
50430;BME280;36359;41.556;-8.418;2023-06-14T11:08:37;100328.50;;;24.82;66.97
50430;BME280;36359;41.556;-8.418;2023-06-14T11:11:07;100337.97;;;24.45;67.52
50430;BME280;36359;41.556;-8.418;2023-06-14T11:13:57;100340.78;;;25.09;68.26
50430;BME280;36359;41.556;-8.418;2023-06-14T11:16:26;100324.91;;;24.81;69.98
50430;BME280;36359;41.556;-8.418;2023-06-14T11:18:57;100324.66;;;25.35;67.29
50430;BME280;36359;41.556;-8.418;2023-06-14T11:21:24;100325.69;;;25.05;68.56
50430;BME280;36359;41.556;-8.418;2023-06-14T11:23:53;100330.00;;;24.49;66.98
50430;BME280;36359;41.556;-8.418;2023-06-14T11:26:30;100320.84;;;24.60;69.86
50430;BME280;36359;41.556;-8.418;2023-06-14T11:29:04;100313.84;;;24.46;67.82
50430;BME280;36359;41.556;-8.418;2023-06-14T11:31:30;100327.53;;;24.41;67.24
50430;BME280;36359;41.556;-8.418;2023-06-14T11:33:58;100322.75;;;24.36;69.26
50430;BME280;36359;41.556;-8.418;2023-06-14T11:36:28;100306.59;;;24.68;69.56
50430;BME280;36359;41.556;-8.418;2023-06-14T11:39:02;100318.25;;;24.82;69.49
50430;BME280;36359;41.556;-8.418;2023-06-14T11:41:46;100313.84;;;25.22;66.46
50430;BME280;36359;41.556;-8.418;2023-06-14T11:44:12;100303.59;;;25.22;66.11
50430;BME280;36359;41.556;-8.418;2023-06-14T11:46:38;100307.97;;;25.18;65.45
50430;BME280;36359;41.556;-8.418;2023-06-14T11:49:10;100314.94;;;24.57;68.68
50430;BME280;36359;41.556;-8.418;2023-06-14T11:51:45;100307.78;;;24.73;66.95
50430;BME280;36359;41.556;-8.418;2023-06-14T11:54:12;100310.03;;;24.99;66.00
50430;BME280;36359;41.556;-8.418;2023-06-14T11:56:38;100302.25;;;25.25;67.19
50430;BME280;36359;41.556;-8.418;2023-06-14T11:59:04;100299.66;;;25.64;65.38
50430;BME280;36359;41.556;-8.418;2023-06-14T12:01:31;100305.59;;;25.84;63.61
50430;BME280;36359;41.556;-8.418;2023-06-14T12:03:57;100300.50;;;25.81;64.05
50430;BME280;36359;41.556;-8.418;2023-06-14T12:06:29;100308.22;;;25.45;65.90
50430;BME280;36359;41.556;-8.418;2023-06-14T12:08:58;100309.41;;;24.97;65.30
50430;BME280;36359;41.556;-8.418;2023-06-14T12:11:24;100306.69;;;25.26;64.40
50430;BME280;36359;41.556;-8.418;2023-06-14T12:13:53;100302.50;;;25.52;62.98
50430;BME280;36359;41.556;-8.418;2023-06-14T12:16:21;100302.53;;;25.40;66.17
50430;BME280;36359;41.556;-8.418;2023-06-14T12:18:47;100302.09;;;25.89;64.21
50430;BME280;36359;41.556;-8.418;2023-06-14T12:21:13;100308.00;;;26.09;63.53
50430;BME280;36359;41.556;-8.418;2023-06-14T12:23:49;100309.25;;;25.73;64.39
50430;BME280;36359;41.556;-8.418;2023-06-14T12:26:16;100306.81;;;25.59;63.78
50430;BME280;36359;41.556;-8.418;2023-06-14T12:28:46;100309.44;;;25.66;63.91
50430;BME280;36359;41.556;-8.418;2023-06-14T12:31:13;100303.75;;;25.90;63.19
50430;BME280;36359;41.556;-8.418;2023-06-14T12:33:40;100303.81;;;25.78;64.63
50430;BME280;36359;41.556;-8.418;2023-06-14T12:36:10;100295.09;;;25.57;65.74
50430;BME280;36359;41.556;-8.418;2023-06-14T12:38:36;100292.81;;;25.54;66.29
50430;BME280;36359;41.556;-8.418;2023-06-14T12:41:03;100296.06;;;25.80;64.44
50430;BME280;36359;41.556;-8.418;2023-06-14T12:43:29;100295.25;;;25.51;63.37
50430;BME280;36359;41.556;-8.418;2023-06-14T12:45:54;100292.88;;;26.05;63.10
50430;BME280;36359;41.556;-8.418;2023-06-14T12:48:20;100285.16;;;25.61;63.66
50430;BME280;36359;41.556;-8.418;2023-06-14T12:50:47;100286.34;;;25.66;63.49